TFM - Tactical Decision Aid
ID: Runway Winds: CIG/VIS Threshold:

KPHL - Philadelphia Intl, PA, US

Updated at: 1130 UTC 25 Jun 2019
Latest TAF at: 1123 UTC 25 Jun 2019

TAF Board

Time1105Z 25/12Z 25/13Z 25/14Z 25/15Z 25/16Z 25/17Z 25/18Z 25/19Z 25/20Z 25/21Z 25/22Z 25/23Z 26/00Z>>
Type OBS PRVL
  [TEMP]  
PRVL PRVL PRVL PRVL PRVL PRVL PRVL PRVL PRVL PRVL PRVL PRVL
VIS 10 >6 >6 >6 >6 >6 >6 >6 >6 >6 >6 >6 >6 >6
CIG 15 45
  [15]  
35 35 35 -- -- -- -- -- -- -- -- 250
Cover OVC BKN
  [OVC]  
BKN BKN BKN SCT SCT SCT SCT SCT SCT SCT SCT BKN
FltCat MVFR VFR
  [MVFR]  
VFR VFR VFR VFR VFR VFR VFR VFR VFR VFR VFR VFR
WX -- --
  [--]  
-- -- -- -- -- -- -- -- -- -- -- --
WDir 180 200
[200]
230 230 230 270 270 270 270 270 270 270 270 280
WSpd 5 4
  [4]  
6 6 6 10 10 10 10 10 10 10 10 8
WGst -- --
  [--]  
-- -- -- 18 18 18 18 18 18 18 18 --

TDA Impact Legend

  None Marginal Slight Moderate High
Visibility (sm) >5 3≤X≤5 1≤X<3 0.5≤X<1 <0.5
Ceiling (100 ft) >30 10≤X≤30 4≤X<10 2≤X<4 <2
Wind Speed (kt) <15 15≤X<25 25≤X<30 ≥30
Wind Gust (kt) <15 15≤X<25 25≤X<35 ≥35
Weather No Wx Reported VCTS -TS,-FZRA TS,FZRA +TS,+FZRA
TAF
KPHL 251123Z 2512/2618 20004KT P6SM SCT015 BKN045
  TEMPO 2512/2513 BKN015 OVC045
  FM251300 23006KT P6SM BKN035
  FM251600 27010G18KT P6SM SCT045
  FM260000 28008KT P6SM BKN250
  FM260400 33006KT P6SM SCT250
  FM261400 28006KT P6SM SCT050


METAR
KPHL 251105Z 18005KT 10SM BKN015 BKN150 OVC240 24/22 A2980 RMK AO2 T02390217 $
KPHL 251054Z VRB03KT 10SM SCT015 BKN150 OVC250 23/22 A2979 RMK AO2 SLP087 T02330217 $
KPHL 251047Z 13005KT 10SM SCT015 BKN150 OVC250 23/22 A2979 RMK AO2 T02330217 $
KPHL 251029Z VRB03KT 10SM BKN015 OVC150 23/22 A2979 RMK AO2 BKN V SCT T02330217 $
KPHL 250954Z 14004KT 10SM FEW015 SCT020 SCT040 OVC130 23/22 A2978 RMK AO2 RAB34E51 SLP084 P0000 T02330217 $
KPHL 250947Z 16003KT 10SM -RA SCT019 SCT075 OVC130 23/22 A2978 RMK AO2 RAB34 P0000 T02330217 $
KPHL 250934Z 17005KT 8SM -RA FEW013 BKN019 OVC048 23/22 A2978 RMK AO2 LTG DSNT E RAB34 P0000 T02330217 $
KPHL 250924Z 16004KT 10SM FEW013 BKN019 OVC028 23/22 A2978 RMK AO2 T02330217 $
KPHL 250906Z 16003KT 10SM FEW014 BKN021 OVC050 23/21 A2979 RMK AO2 T02330211 $
KPHL 250854Z 18004KT 10SM SCT022 BKN055 BKN100 OVC170 23/21 A2979 RMK AO2 SLP087 T02330211 55004 $

Radar Display
Forecast Discussion